.
WxDataArchive / Data Records for 2012-01-02
2012-01-01 January 2012 2012-01-03

Data Records for Monday, 02 January 2012

Time	Temp	Chill	HIndex	Humid	Dewpt	 Wind 	HiWind	WindDir	Rain 	Barom 
-----	----	-----	------	-----	-----	------	------	-------	-----	----- 
00:00	29.5	29.5	29.5	72	21.6	3	7	248	0.00	29.992 
00:05	29.5	29.5	29.5	73	21.9	3	6	248	0.00	29.992 
00:10	29.5	25.2	29.5	73	21.9	4	7	270	0.00	29.992 
00:15	29.5	29.5	29.5	73	21.9	3	6	270	0.00	29.992 
00:20	29.4	25.1	29.4	72	21.5	4	7	270	0.00	29.992 
00:25	29.4	25.1	29.4	72	21.5	4	11	270	0.00	29.992 
00:30	29.4	25.1	29.4	72	21.5	4	8	270	0.00	29.995 
00:35	29.4	25.1	29.4	72	21.5	4	11	270	0.00	29.995 
00:40	29.4	29.4	29.4	72	21.5	3	5	248	0.00	29.995 
00:45	29.4	29.4	29.4	71	21.2	3	6	248	0.00	29.988 
00:50	29.4	25.1	29.4	71	21.2	4	7	248	0.00	29.988 
00:55	29.5	29.5	29.5	71	21.3	3	9	248	0.00	29.988 
01:00	29.4	29.4	29.4	72	21.5	3	6	248	0.00	29.989 
01:05	29.4	25.1	29.4	72	21.5	4	11	248	0.00	29.989 
01:10	29.3	25.0	29.3	72	21.4	4	10	270	0.00	29.989 
01:15	29.3	23.9	29.3	72	21.4	5	9	270	0.00	29.987 
01:20	29.3	25.0	29.3	73	21.7	4	10	270	0.00	29.987 
01:25	29.1	24.7	29.1	73	21.5	4	11	270	0.00	29.987 
01:30	29.1	24.7	29.1	74	21.9	4	9	270	0.00	29.987 
01:35	29.0	24.6	29.0	75	22.1	4	10	270	0.00	29.987 
01:40	29.0	24.6	29.0	75	22.1	4	9	270	0.00	29.987 
01:45	29.0	24.6	29.0	74	21.8	4	11	270	0.00	29.981 
01:50	29.1	29.1	29.1	74	21.9	3	7	270	0.00	29.981 
01:55	29.1	24.7	29.1	73	21.5	4	9	248	0.00	29.981 
02:00	29.1	24.7	29.1	73	21.5	4	8	270	0.00	29.978 
02:05	29.1	24.7	29.1	73	21.5	4	7	270	0.00	29.978 
02:10	29.1	24.7	29.1	73	21.5	4	10	270	0.00	29.978 
02:15	29.1	29.1	29.1	74	21.9	3	11	270	0.00	29.981 
02:20	29.0	24.6	29.0	74	21.8	4	10	270	0.00	29.981 
02:25	29.0	24.6	29.0	74	21.8	4	10	270	0.00	29.981 
02:30	29.0	24.6	29.0	74	21.8	4	10	248	0.00	29.982 
02:35	29.0	23.6	29.0	74	21.8	5	9	270	0.00	29.982 
02:40	28.8	24.4	28.8	74	21.6	4	11	270	0.00	29.982 
02:45	28.8	23.3	28.8	74	21.6	5	11	270	0.00	29.988 
02:50	28.8	23.3	28.8	74	21.6	5	10	270	0.00	29.988 
02:55	28.8	28.8	28.8	74	21.6	3	5	270	0.00	29.988 
03:00	28.8	28.8	28.8	75	21.9	3	5	270	0.00	29.985 
03:05	28.7	24.3	28.7	75	21.8	4	11	270	0.00	29.985 
03:10	28.5	24.0	28.5	77	22.2	4	7	270	0.00	29.985 
03:15	28.4	23.9	28.4	78	22.4	4	9	270	0.00	29.986 
03:20	28.2	28.2	28.2	79	22.5	3	7	248	0.00	29.986 
03:25	28.2	28.2	28.2	81	23.1	3	5	248	0.00	29.986 
03:30	28.1	28.1	28.1	81	23.0	3	7	248	0.00	29.986 
03:35	28.1	28.1	28.1	81	23.0	3	6	270	0.00	29.986 
03:40	28.1	28.1	28.1	80	22.7	3	5	270	0.00	29.986 
03:45	28.2	28.2	28.2	80	22.8	3	9	270	0.00	29.987 
03:50	28.2	23.7	28.2	80	22.8	4	9	270	0.00	29.987 
03:55	28.2	28.2	28.2	80	22.8	3	6	248	0.00	29.987 
04:00	28.1	28.1	28.1	80	22.7	3	6	248	0.00	29.980 
04:05	28.1	23.6	28.1	80	22.7	4	7	270	0.00	29.980 
04:10	28.1	28.1	28.1	80	22.7	3	6	270	0.00	29.980 
04:15	27.9	27.9	27.9	81	22.8	3	7	248	0.00	29.983 
04:20	27.9	23.3	27.9	81	22.8	4	5	270	0.00	29.983 
04:25	27.8	27.8	27.8	81	22.7	3	6	270	0.00	29.983 
04:30	27.8	27.8	27.8	81	22.7	2	4	248	0.00	29.979 
04:35	27.8	27.8	27.8	81	22.7	3	5	270	0.00	29.979 
04:40	27.9	23.3	27.9	80	22.5	4	7	270	0.00	29.979 
04:45	27.9	27.9	27.9	79	22.2	3	6	248	0.00	29.978 
04:50	28.1	23.6	28.1	78	22.1	4	9	270	0.00	29.978 
04:55	28.1	23.6	28.1	77	21.8	4	9	270	0.00	29.978 
05:00	28.2	23.7	28.2	77	21.9	4	6	270	0.00	29.981 
05:05	28.1	23.6	28.1	77	21.8	4	7	270	0.00	29.981 
05:10	28.1	28.1	28.1	77	21.8	3	6	270	0.00	29.981 
05:15	27.9	23.3	27.9	77	21.6	4	8	270	0.00	29.982 
05:20	27.6	23.0	27.6	77	21.4	4	8	270	0.00	29.982 
05:25	27.6	27.6	27.6	77	21.4	3	5	248	0.00	29.982 
05:30	27.6	27.6	27.6	77	21.4	3	6	248	0.00	29.984 
05:35	27.5	22.9	27.5	75	20.6	4	9	270	0.00	29.984 
05:40	27.5	27.5	27.5	74	20.3	3	6	270	0.00	29.984 
05:45	27.5	21.8	27.5	73	20.0	5	11	270	0.00	29.982 
05:50	27.5	22.9	27.5	73	20.0	4	9	270	0.00	29.982 
05:55	27.5	22.9	27.5	72	19.7	4	9	270	0.00	29.982 
06:00	27.5	22.9	27.5	71	19.4	4	10	270	0.00	29.987 
06:05	27.5	22.9	27.5	71	19.4	4	11	270	0.00	29.987 
06:10	27.3	22.6	27.3	72	19.5	4	10	270	0.00	29.987 
06:15	27.3	27.3	27.3	72	19.5	3	5	270	0.00	29.995 
06:20	27.3	27.3	27.3	73	19.8	3	6	270	0.00	29.995 
06:25	27.2	27.2	27.2	73	19.7	3	6	248	0.00	29.995 
06:30	27.2	22.5	27.2	73	19.7	4	9	270	0.00	29.996 
06:35	27.2	22.5	27.2	73	19.7	4	8	270	0.00	29.996 
06:40	27.2	22.5	27.2	73	19.7	4	11	270	0.00	29.996 
06:45	27.0	27.0	27.0	73	19.5	3	6	248	0.00	30.000 
06:50	27.0	27.0	27.0	74	19.8	3	6	270	0.00	30.000 
06:55	26.9	26.9	26.9	74	19.7	3	6	270	0.00	30.000 
07:00	26.7	26.7	26.7	75	19.9	3	6	270	0.00	30.000 
07:05	26.6	26.6	26.6	77	20.4	3	6	248	0.00	30.000 
07:10	26.3	26.3	26.3	78	20.4	3	5	292	0.00	30.000 
07:15	26.1	21.3	26.1	79	20.5	4	8	270	0.00	30.001 
07:20	26.0	26.0	26.0	81	21.0	3	7	270	0.00	30.001 
07:25	25.8	25.8	25.8	81	20.8	3	5	270	0.00	30.001 
07:30	25.7	25.7	25.7	82	21.0	3	5	270	0.00	30.004 
07:35	25.6	25.6	25.6	83	21.2	2	4	248	0.00	30.004 
07:40	25.6	25.6	25.6	84	21.5	2	6	248	0.00	30.004 
07:45	25.4	25.4	25.4	84	21.3	2	4	248	0.00	30.006 
07:50	25.4	25.4	25.4	85	21.5	1	3	248	0.00	30.006 
07:55	25.4	25.4	25.4	85	21.5	2	5	248	0.00	30.006 
08:00	25.3	25.3	25.3	85	21.4	2	4	248	0.00	30.006 
08:05	25.3	25.3	25.3	85	21.4	2	5	248	0.00	30.006 
08:10	25.3	25.3	25.3	85	21.4	3	5	270	0.00	30.006 
08:15	25.3	25.3	25.3	85	21.4	2	5	248	0.00	30.010 
08:20	25.3	25.3	25.3	85	21.4	2	4	248	0.00	30.010 
08:25	25.3	25.3	25.3	85	21.4	2	4	248	0.00	30.010 
08:30	25.1	25.1	25.1	85	21.2	3	5	248	0.00	30.014 
08:35	25.1	25.1	25.1	85	21.2	1	4	248	0.00	30.014 
08:40	25.3	25.3	25.3	85	21.4	1	2	248	0.00	30.014 
08:45	25.3	25.3	25.3	85	21.4	1	2	248	0.00	30.016 
08:50	25.3	25.3	25.3	86	21.7	1	3	248	0.00	30.016 
08:55	25.1	25.1	25.1	86	21.5	2	4	248	0.00	30.016 
09:00	25.1	25.1	25.1	86	21.5	1	3	248	0.00	30.023 
09:05	25.0	25.0	25.0	86	21.4	2	5	270	0.00	30.023 
09:10	25.0	25.0	25.0	86	21.4	2	5	270	0.00	30.023 
09:15	24.8	24.8	24.8	86	21.2	2	8	270	0.00	30.026 
09:20	24.8	24.8	24.8	84	20.7	3	7	270	0.00	30.026 
09:25	24.7	19.6	24.7	82	20.0	4	7	270	0.00	30.026 
09:30	24.7	24.7	24.7	81	19.7	3	5	270	0.00	30.028 
09:35	24.7	19.6	24.7	79	19.1	4	10	270	0.00	30.028 
09:40	24.7	24.7	24.7	78	18.8	3	6	338	0.00	30.028 
09:45	24.8	24.8	24.8	78	18.9	3	10	292	0.00	30.035 
09:50	24.5	24.5	24.5	80	19.2	3	4	315	0.00	30.035 
09:55	24.4	24.4	24.4	81	19.4	3	7	270	0.00	30.035 
10:00	24.2	24.2	24.2	81	19.2	3	6	270	0.00	30.045 
10:05	24.2	24.2	24.2	81	19.2	3	7	270	0.00	30.045 
10:10	24.2	24.2	24.2	80	18.9	3	7	270	0.00	30.045 
10:15	24.2	19.1	24.2	78	18.3	4	7	270	0.00	30.048 
10:20	24.4	24.4	24.4	77	18.2	3	7	315	0.00	30.048 
10:25	24.2	19.1	24.2	77	18.1	4	7	270	0.00	30.048 
10:30	24.2	24.2	24.2	77	18.1	3	7	270	0.00	30.053 
10:35	24.2	24.2	24.2	77	18.1	3	6	270	0.00	30.053 
10:40	24.2	24.2	24.2	76	17.7	3	10	315	0.00	30.053 
10:45	24.2	19.1	24.2	76	17.7	4	6	270	0.00	30.058 
10:50	24.2	24.2	24.2	77	18.1	3	9	270	0.00	30.058 
10:55	24.4	24.4	24.4	78	18.5	3	6	270	0.00	30.058 
11:00	24.4	24.4	24.4	79	18.8	3	6	248	0.00	30.057 
11:05	24.5	24.5	24.5	79	18.9	2	9	270	0.00	30.057 
11:10	24.5	24.5	24.5	79	18.9	2	5	248	0.00	30.057 
11:15	24.5	19.4	24.5	79	18.9	4	6	270	0.00	30.061 
11:20	24.4	19.3	24.4	79	18.8	4	6	270	0.00	30.061 
11:25	24.5	19.4	24.5	78	18.6	4	9	270	0.00	30.061 
11:30	24.5	19.4	24.5	77	18.3	4	11	270	0.00	30.060 
11:35	24.8	19.8	24.8	76	18.3	4	8	270	0.00	30.060 
11:40	25.1	20.1	25.1	76	18.6	4	8	270	0.00	30.060 
11:45	25.1	25.1	25.1	76	18.6	3	6	270	0.00	30.060 
11:50	25.1	25.1	25.1	77	18.9	2	7	270	0.00	30.060 
11:55	25.1	25.1	25.1	76	18.6	3	6	270	0.00	30.060 
12:00	25.1	20.1	25.1	75	18.3	4	7	270	0.00	30.063 
12:05	25.3	25.3	25.3	76	18.8	2	7	270	0.00	30.063 
12:10	25.0	20.0	25.0	75	18.2	4	8	270	0.00	30.063 
12:15	24.7	19.6	24.7	76	18.2	4	11	270	0.00	30.059 
12:20	24.7	19.6	24.7	76	18.2	4	9	292	0.00	30.059 
12:25	24.7	19.6	24.7	76	18.2	4	10	270	0.00	30.059 
12:30	24.8	24.8	24.8	75	18.0	3	7	270	0.00	30.058 
12:35	25.1	25.1	25.1	75	18.3	3	7	270	0.00	30.058 
12:40	25.0	20.0	25.0	75	18.2	4	7	270	0.00	30.058 
12:45	24.8	19.8	24.8	76	18.3	4	6	270	0.00	30.058 
12:50	24.7	19.6	24.7	77	18.5	4	10	270	0.00	30.058 
12:55	24.5	24.5	24.5	77	18.3	3	5	270	0.00	30.058 
13:00	24.5	24.5	24.5	78	18.6	3	5	270	0.00	30.059 
13:05	24.7	24.7	24.7	79	19.1	3	7	248	0.00	30.059 
13:10	24.8	19.8	24.8	79	19.2	4	7	270	0.00	30.059 
13:15	24.8	24.8	24.8	79	19.2	3	6	270	0.00	30.059 
13:20	24.7	19.6	24.7	78	18.8	4	8	270	0.00	30.059 
13:25	24.7	24.7	24.7	79	19.1	3	7	270	0.00	30.059 
13:30	24.7	19.6	24.7	79	19.1	4	7	270	0.00	30.062 
13:35	24.7	24.7	24.7	79	19.1	3	6	270	0.00	30.062 
13:40	24.5	19.4	24.5	79	18.9	4	6	270	0.00	30.062 
13:45	24.4	19.3	24.4	79	18.8	4	7	270	0.00	30.061 
13:50	24.5	19.4	24.5	80	19.2	4	9	270	0.00	30.061 
13:55	24.5	19.4	24.5	80	19.2	4	7	270	0.00	30.061 
14:00	24.7	24.7	24.7	80	19.4	3	7	270	0.00	30.059 
14:05	24.5	19.4	24.5	79	18.9	4	7	270	0.00	30.059 
14:10	24.5	19.4	24.5	79	18.9	4	7	270	0.00	30.059 
14:15	24.5	19.4	24.5	79	18.9	4	7	270	0.00	30.062 
14:20	24.7	19.6	24.7	79	19.1	4	8	270	0.00	30.062 
14:25	24.5	19.4	24.5	79	18.9	4	10	270	0.00	30.062 
14:30	24.5	24.5	24.5	80	19.2	3	6	270	0.00	30.065 
14:35	24.7	24.7	24.7	80	19.4	3	6	270	0.00	30.065 
14:40	24.7	24.7	24.7	81	19.7	3	5	270	0.00	30.065 
14:45	24.7	24.7	24.7	81	19.7	3	6	270	0.00	30.070 
14:50	24.7	24.7	24.7	79	19.1	3	7	270	0.00	30.070 
14:55	24.7	19.6	24.7	79	19.1	4	8	270	0.00	30.070 
15:00	24.8	19.8	24.8	79	19.2	4	6	270	0.00	30.075 
15:05	24.8	19.8	24.8	79	19.2	4	6	270	0.00	30.075 
15:10	24.8	24.8	24.8	79	19.2	3	7	248	0.00	30.075 
15:15	25.0	25.0	25.0	80	19.7	3	6	248	0.00	30.081 
15:20	25.0	25.0	25.0	80	19.7	3	6	270	0.00	30.081 
15:25	25.0	20.0	25.0	80	19.7	4	7	270	0.00	30.081 
15:30	25.0	20.0	25.0	79	19.4	4	6	270	0.00	30.087 
15:35	24.8	19.8	24.8	78	18.9	4	9	270	0.00	30.087 
15:40	24.8	24.8	24.8	78	18.9	3	7	248	0.00	30.087 
15:45	24.7	19.6	24.7	77	18.5	4	9	270	0.00	30.098 
15:50	24.7	19.6	24.7	77	18.5	4	9	270	0.00	30.098 
15:55	24.7	19.6	24.7	77	18.5	4	8	270	0.00	30.098 
16:00	24.7	24.7	24.7	77	18.5	3	5	270	0.00	30.104 
16:05	24.5	19.4	24.5	77	18.3	4	9	270	0.00	30.104 
16:10	24.5	19.4	24.5	78	18.6	4	6	270	0.00	30.104 
16:15	24.4	19.3	24.4	79	18.8	4	9	270	0.00	30.112 
16:20	24.2	24.2	24.2	80	18.9	3	7	270	0.00	30.112 
16:25	24.2	24.2	24.2	80	18.9	3	7	270	0.00	30.112 
16:30	24.4	24.4	24.4	81	19.4	3	7	270	0.00	30.121 
16:35	24.2	19.1	24.2	81	19.2	4	9	270	0.00	30.121 
16:40	24.1	19.0	24.1	81	19.1	4	9	270	0.00	30.121 
16:45	24.2	24.2	24.2	81	19.2	3	7	270	0.00	30.129 
16:50	24.1	24.1	24.1	81	19.1	3	7	270	0.00	30.129 
16:55	23.9	23.9	23.9	81	18.9	3	7	270	0.00	30.129 
17:00	23.8	23.8	23.8	82	19.1	3	5	270	0.00	30.133 
17:05	23.6	23.6	23.6	82	18.9	3	7	270	0.00	30.133 
17:10	23.5	23.5	23.5	82	18.8	3	6	270	0.00	30.133 
17:15	23.5	23.5	23.5	82	18.8	3	5	270	0.00	30.143 
17:20	23.3	23.3	23.3	81	18.3	3	10	270	0.00	30.143 
17:25	23.3	18.0	23.3	81	18.3	4	7	270	0.00	30.143 
17:30	23.2	23.2	23.2	80	18.0	3	6	270	0.00	30.149 
17:35	23.2	23.2	23.2	80	18.0	3	7	270	0.00	30.149 
17:40	23.2	23.2	23.2	80	18.0	2	5	315	0.00	30.149 
17:45	23.2	17.9	23.2	80	18.0	4	7	270	0.00	30.157 
17:50	23.2	23.2	23.2	79	17.7	3	7	270	0.00	30.157 
17:55	23.2	23.2	23.2	79	17.7	3	7	270	0.00	30.157 
18:00	23.2	17.9	23.2	79	17.7	4	9	270	0.00	30.164 
18:05	23.2	23.2	23.2	79	17.7	2	5	270	0.00	30.164 
18:10	23.2	23.2	23.2	79	17.7	3	6	270	0.00	30.164 
18:15	23.2	23.2	23.2	78	17.4	3	6	270	0.00	30.173 
18:20	23.2	23.2	23.2	79	17.7	3	6	270	0.00	30.173 
18:25	23.2	23.2	23.2	79	17.7	3	7	270	0.00	30.173 
18:30	23.2	23.2	23.2	79	17.7	3	7	338	0.00	30.181 
18:35	23.2	23.2	23.2	80	18.0	3	5	270	0.00	30.181 
18:40	23.0	23.0	23.0	81	18.1	3	7	248	0.00	30.181 
18:45	23.0	23.0	23.0	81	18.1	2	5	315	0.00	30.193 
18:50	22.9	22.9	22.9	82	18.2	2	9	292	0.00	30.193 
18:55	22.7	22.7	22.7	83	18.3	2	4	292	0.00	30.193 
19:00	22.7	22.7	22.7	84	18.6	2	4	270	0.00	30.199 
19:05	22.5	22.5	22.5	85	18.7	2	6	248	0.00	30.199 
19:10	22.4	22.4	22.4	86	18.9	3	5	270	0.00	30.199 
19:15	22.4	22.4	22.4	86	18.9	2	4	270	0.00	30.200 
19:20	22.2	22.2	22.2	87	18.9	2	4	270	0.00	30.200 
19:25	22.2	22.2	22.2	87	18.9	2	5	270	0.00	30.200 
19:30	22.2	22.2	22.2	87	18.9	2	4	270	0.00	30.207 
19:35	22.2	22.2	22.2	87	18.9	2	4	248	0.00	30.207 
19:40	22.2	22.2	22.2	86	18.7	1	3	292	0.00	30.207 
19:45	22.2	22.2	22.2	86	18.7	2	4	270	0.00	30.212 
19:50	22.2	22.2	22.2	85	18.4	2	5	270	0.00	30.212 
19:55	22.2	22.2	22.2	85	18.4	1	4	248	0.00	30.212 
20:00	22.2	22.2	22.2	85	18.4	1	4	248	0.00	30.214 
20:05	22.2	22.2	22.2	84	18.1	1	3	338	0.00	30.214 
20:10	22.2	22.2	22.2	84	18.1	2	5	315	0.00	30.214 
20:15	22.2	22.2	22.2	84	18.1	1	4	315	0.00	30.216 
20:20	22.4	22.4	22.4	84	18.3	1	3	270	0.00	30.216 
20:25	22.4	22.4	22.4	83	18.0	2	6	248	0.00	30.216 
20:30	22.5	22.5	22.5	83	18.1	1	4	270	0.00	30.216 
20:35	22.5	22.5	22.5	82	17.9	0	4	338	0.00	30.216 
20:40	22.5	22.5	22.5	82	17.9	1	4	292	0.00	30.216 
20:45	22.5	22.5	22.5	82	17.9	2	5	292	0.00	30.223 
20:50	22.5	22.5	22.5	82	17.9	1	4	338	0.00	30.223 
20:55	22.5	22.5	22.5	82	17.9	1	2	270	0.00	30.223 
21:00	22.5	22.5	22.5	82	17.9	1	4	270	0.00	30.226 
21:05	22.5	22.5	22.5	81	17.6	0	2	248	0.00	30.226 
21:10	22.5	22.5	22.5	81	17.6	1	3	292	0.00	30.226 
21:15	22.5	22.5	22.5	81	17.6	1	4	292	0.00	30.230 
21:20	22.4	22.4	22.4	81	17.5	1	3	270	0.00	30.230 
21:25	22.4	22.4	22.4	81	17.5	1	4	270	0.00	30.230 
21:30	22.4	22.4	22.4	81	17.5	1	5	338	0.00	30.233 
21:35	22.4	22.4	22.4	81	17.5	1	3	292	0.00	30.233 
21:40	22.2	22.2	22.2	81	17.3	1	3	248	0.00	30.233 
21:45	22.2	22.2	22.2	81	17.3	1	5	338	0.00	30.231 
21:50	22.2	22.2	22.2	81	17.3	0	2	315	0.00	30.231 
21:55	22.2	22.2	22.2	80	17.0	1	4	315	0.00	30.231 
22:00	22.2	22.2	22.2	79	16.7	1	3	248	0.00	30.232 
22:05	22.1	22.1	22.1	78	16.3	1	4	248	0.00	30.232 
22:10	22.1	22.1	22.1	77	16.0	1	4	315	0.00	30.232 
22:15	22.1	22.1	22.1	77	16.0	1	4	338	0.00	30.239 
22:20	22.1	22.1	22.1	77	16.0	0	2	338	0.00	30.239 
22:25	22.1	22.1	22.1	76	15.7	1	5	270	0.00	30.239 
22:30	22.1	22.1	22.1	75	15.4	1	4	270	0.00	30.244 
22:35	22.1	22.1	22.1	74	15.1	1	4	315	0.00	30.244 
22:40	22.1	22.1	22.1	73	14.8	1	4	270	0.00	30.244 
22:45	22.1	22.1	22.1	73	14.8	1	6	292	0.00	30.247 
22:50	22.2	22.2	22.2	72	14.6	1	4	292	0.00	30.247 
22:55	22.1	22.1	22.1	71	14.2	1	3	292	0.00	30.247 
23:00	22.1	22.1	22.1	70	13.8	1	4	292	0.00	30.251 
23:05	22.1	22.1	22.1	70	13.8	1	3	315	0.00	30.251 
23:10	22.1	22.1	22.1	69	13.5	1	6	315	0.00	30.251 
23:15	22.1	22.1	22.1	68	13.2	2	5	270	0.00	30.254 
23:20	22.1	22.1	22.1	68	13.2	1	3	292	0.00	30.254 
23:25	22.1	22.1	22.1	67	12.8	2	4	315	0.00	30.254 
23:30	22.1	22.1	22.1	67	12.8	2	6	270	0.00	30.259 
23:35	22.1	22.1	22.1	66	12.5	1	4	270	0.00	30.259 
23:40	21.9	21.9	21.9	66	12.3	1	5	270	0.00	30.259 
23:45	21.9	21.9	21.9	66	12.3	1	5	292	0.00	30.260 
23:50	21.9	21.9	21.9	65	12.0	1	5	270	0.00	30.260 
23:55	21.9	21.9	21.9	65	12.0	1	4	270	0.00	30.260 

CoCoRaHS
IN-AL-39
A2 Web Hosting
Creative Commons License
GoDaddy
search engine by freefind advanced

loaded 2018-11-17 14:00:28 • last modified 2010-11-18 10:43:29
Privacy PolicyDisclaimer
• wx.awcolley.com is powered by PmWiki v.2002016 •
• all content (unless otherwise noted) © 2018 A W Colley